sensor_id;sensor_type;location;lat;lon;timestamp;temperature;humidity
18541;DHT22;9400;50.924;5.328;2023-05-10T00:02:02;14.00;99.90
18541;DHT22;9400;50.924;5.328;2023-05-10T00:04:30;14.00;99.90
18541;DHT22;9400;50.924;5.328;2023-05-10T00:06:58;14.00;99.90
18541;DHT22;9400;50.924;5.328;2023-05-10T00:09:25;14.00;99.90
18541;DHT22;9400;50.924;5.328;2023-05-10T00:11:53;14.00;99.90
18541;DHT22;9400;50.924;5.328;2023-05-10T00:14:20;14.00;99.90
18541;DHT22;9400;50.924;5.328;2023-05-10T00:16:48;13.90;99.90
18541;DHT22;9400;50.924;5.328;2023-05-10T00:19:17;13.80;99.90
18541;DHT22;9400;50.924;5.328;2023-05-10T00:21:45;13.90;99.90
18541;DHT22;9400;50.924;5.328;2023-05-10T00:24:13;14.00;99.90
18541;DHT22;9400;50.924;5.328;2023-05-10T00:26:41;14.00;99.90
18541;DHT22;9400;50.924;5.328;2023-05-10T00:29:09;14.00;99.90
18541;DHT22;9400;50.924;5.328;2023-05-10T00:31:37;14.00;99.90
18541;DHT22;9400;50.924;5.328;2023-05-10T00:34:04;14.00;99.90
18541;DHT22;9400;50.924;5.328;2023-05-10T00:36:33;14.00;99.90
18541;DHT22;9400;50.924;5.328;2023-05-10T00:39:01;14.00;99.90
18541;DHT22;9400;50.924;5.328;2023-05-10T00:41:29;14.00;99.90
18541;DHT22;9400;50.924;5.328;2023-05-10T00:43:58;14.00;99.90
18541;DHT22;9400;50.924;5.328;2023-05-10T00:46:27;13.90;99.90
18541;DHT22;9400;50.924;5.328;2023-05-10T00:48:54;13.90;99.90
18541;DHT22;9400;50.924;5.328;2023-05-10T00:51:25;13.90;99.90
18541;DHT22;9400;50.924;5.328;2023-05-10T00:53:54;13.80;99.90
18541;DHT22;9400;50.924;5.328;2023-05-10T00:56:21;13.70;99.90
18541;DHT22;9400;50.924;5.328;2023-05-10T00:58:50;13.80;99.90
18541;DHT22;9400;50.924;5.328;2023-05-10T01:01:18;13.70;99.90
18541;DHT22;9400;50.924;5.328;2023-05-10T01:03:46;13.80;99.90
18541;DHT22;9400;50.924;5.328;2023-05-10T01:06:14;13.80;99.90
18541;DHT22;9400;50.924;5.328;2023-05-10T01:08:42;13.70;99.90
18541;DHT22;9400;50.924;5.328;2023-05-10T01:11:12;13.70;99.90
18541;DHT22;9400;50.924;5.328;2023-05-10T01:13:42;13.70;99.90
18541;DHT22;9400;50.924;5.328;2023-05-10T01:16:10;13.70;99.90
18541;DHT22;9400;50.924;5.328;2023-05-10T01:18:39;13.70;99.90
18541;DHT22;9400;50.924;5.328;2023-05-10T01:21:17;13.70;99.90
18541;DHT22;9400;50.924;5.328;2023-05-10T01:24:12;13.70;99.90
18541;DHT22;9400;50.924;5.328;2023-05-10T01:33:00;13.70;99.90
18541;DHT22;9400;50.924;5.328;2023-05-10T01:35:34;13.70;99.90
18541;DHT22;9400;50.924;5.328;2023-05-10T01:38:08;13.70;99.90
18541;DHT22;9400;50.924;5.328;2023-05-10T01:40:42;13.60;99.90
18541;DHT22;9400;50.924;5.328;2023-05-10T01:43:19;13.60;99.90
18541;DHT22;9400;50.924;5.328;2023-05-10T01:45:57;13.70;99.90
18541;DHT22;9400;50.924;5.328;2023-05-10T01:48:29;13.60;99.90
18541;DHT22;9400;50.924;5.328;2023-05-10T01:50:57;13.70;99.90
18541;DHT22;9400;50.924;5.328;2023-05-10T01:53:26;13.70;99.90
18541;DHT22;9400;50.924;5.328;2023-05-10T01:55:55;13.70;99.90
18541;DHT22;9400;50.924;5.328;2023-05-10T01:58:27;13.70;99.90
18541;DHT22;9400;50.924;5.328;2023-05-10T02:00:55;13.60;99.90
18541;DHT22;9400;50.924;5.328;2023-05-10T02:03:27;13.60;99.90
18541;DHT22;9400;50.924;5.328;2023-05-10T02:05:56;13.70;99.90
18541;DHT22;9400;50.924;5.328;2023-05-10T02:08:25;13.60;99.90
18541;DHT22;9400;50.924;5.328;2023-05-10T02:10:55;13.60;99.90
18541;DHT22;9400;50.924;5.328;2023-05-10T02:13:24;13.70;99.90
18541;DHT22;9400;50.924;5.328;2023-05-10T02:15:55;13.80;99.90
18541;DHT22;9400;50.924;5.328;2023-05-10T02:18:24;13.80;99.90
18541;DHT22;9400;50.924;5.328;2023-05-10T02:20:54;13.80;99.90
18541;DHT22;9400;50.924;5.328;2023-05-10T02:23:23;13.80;99.90
18541;DHT22;9400;50.924;5.328;2023-05-10T02:25:52;13.80;99.90
18541;DHT22;9400;50.924;5.328;2023-05-10T02:28:24;13.70;99.90
18541;DHT22;9400;50.924;5.328;2023-05-10T02:30:53;13.80;99.90
18541;DHT22;9400;50.924;5.328;2023-05-10T02:33:22;13.70;99.90
18541;DHT22;9400;50.924;5.328;2023-05-10T02:35:51;13.70;99.90
18541;DHT22;9400;50.924;5.328;2023-05-10T02:38:22;13.70;99.90
18541;DHT22;9400;50.924;5.328;2023-05-10T02:40:51;13.70;99.90
18541;DHT22;9400;50.924;5.328;2023-05-10T02:43:21;13.70;99.90
18541;DHT22;9400;50.924;5.328;2023-05-10T02:45:50;13.60;99.90
18541;DHT22;9400;50.924;5.328;2023-05-10T02:48:18;13.60;99.90
18541;DHT22;9400;50.924;5.328;2023-05-10T02:50:45;13.70;99.90
18541;DHT22;9400;50.924;5.328;2023-05-10T02:53:22;13.70;99.90
18541;DHT22;9400;50.924;5.328;2023-05-10T02:55:52;13.80;99.90
18541;DHT22;9400;50.924;5.328;2023-05-10T02:58:20;13.80;99.90
18541;DHT22;9400;50.924;5.328;2023-05-10T03:00:49;13.80;99.90
18541;DHT22;9400;50.924;5.328;2023-05-10T03:03:16;13.80;99.90
18541;DHT22;9400;50.924;5.328;2023-05-10T03:05:44;13.70;99.90
18541;DHT22;9400;50.924;5.328;2023-05-10T03:08:12;13.80;99.90
18541;DHT22;9400;50.924;5.328;2023-05-10T03:10:47;13.70;99.90
18541;DHT22;9400;50.924;5.328;2023-05-10T03:13:31;13.70;99.90
18541;DHT22;9400;50.924;5.328;2023-05-10T03:16:07;13.70;99.90
18541;DHT22;9400;50.924;5.328;2023-05-10T03:18:41;13.80;99.90
18541;DHT22;9400;50.924;5.328;2023-05-10T03:21:11;13.80;99.90
18541;DHT22;9400;50.924;5.328;2023-05-10T03:23:42;13.80;99.90
18541;DHT22;9400;50.924;5.328;2023-05-10T03:26:17;13.70;99.90
18541;DHT22;9400;50.924;5.328;2023-05-10T03:28:48;13.70;99.90
18541;DHT22;9400;50.924;5.328;2023-05-10T03:31:17;13.80;99.90
18541;DHT22;9400;50.924;5.328;2023-05-10T03:33:48;13.70;99.90
18541;DHT22;9400;50.924;5.328;2023-05-10T03:36:16;13.60;99.90
18541;DHT22;9400;50.924;5.328;2023-05-10T03:38:43;13.60;99.90
18541;DHT22;9400;50.924;5.328;2023-05-10T03:41:12;13.70;99.90
18541;DHT22;9400;50.924;5.328;2023-05-10T03:43:39;13.80;99.90
18541;DHT22;9400;50.924;5.328;2023-05-10T03:46:08;13.80;99.90
18541;DHT22;9400;50.924;5.328;2023-05-10T03:48:35;13.70;99.90
18541;DHT22;9400;50.924;5.328;2023-05-10T03:51:03;13.70;99.90
18541;DHT22;9400;50.924;5.328;2023-05-10T03:53:30;13.70;99.90
18541;DHT22;9400;50.924;5.328;2023-05-10T03:55:58;13.70;99.90
18541;DHT22;9400;50.924;5.328;2023-05-10T03:58:27;13.80;99.90
18541;DHT22;9400;50.924;5.328;2023-05-10T04:00:55;13.70;99.90
18541;DHT22;9400;50.924;5.328;2023-05-10T04:03:22;13.70;99.90
18541;DHT22;9400;50.924;5.328;2023-05-10T04:05:59;13.70;99.90
18541;DHT22;9400;50.924;5.328;2023-05-10T04:08:27;13.60;99.90
18541;DHT22;9400;50.924;5.328;2023-05-10T04:10:54;13.50;99.90
18541;DHT22;9400;50.924;5.328;2023-05-10T04:13:21;13.40;99.90
18541;DHT22;9400;50.924;5.328;2023-05-10T04:15:51;13.20;99.90
18541;DHT22;9400;50.924;5.328;2023-05-10T04:18:18;13.20;99.90
18541;DHT22;9400;50.924;5.328;2023-05-10T04:20:46;13.10;99.90
18541;DHT22;9400;50.924;5.328;2023-05-10T04:23:13;13.10;99.90
18541;DHT22;9400;50.924;5.328;2023-05-10T04:25:42;13.10;99.90
18541;DHT22;9400;50.924;5.328;2023-05-10T04:28:10;13.20;99.90
18541;DHT22;9400;50.924;5.328;2023-05-10T04:30:38;13.20;99.90
18541;DHT22;9400;50.924;5.328;2023-05-10T04:33:07;13.30;99.90
18541;DHT22;9400;50.924;5.328;2023-05-10T04:35:35;13.30;99.90
18541;DHT22;9400;50.924;5.328;2023-05-10T04:38:03;13.30;99.90
18541;DHT22;9400;50.924;5.328;2023-05-10T04:40:30;13.30;99.90
18541;DHT22;9400;50.924;5.328;2023-05-10T04:42:59;13.10;99.90
18541;DHT22;9400;50.924;5.328;2023-05-10T04:45:26;13.10;99.90
18541;DHT22;9400;50.924;5.328;2023-05-10T04:47:54;13.10;99.90
18541;DHT22;9400;50.924;5.328;2023-05-10T04:50:23;13.20;99.90
18541;DHT22;9400;50.924;5.328;2023-05-10T04:52:51;13.10;99.90
18541;DHT22;9400;50.924;5.328;2023-05-10T04:55:18;13.20;99.90
18541;DHT22;9400;50.924;5.328;2023-05-10T04:57:46;13.10;99.90
18541;DHT22;9400;50.924;5.328;2023-05-10T05:00:14;13.10;99.90
18541;DHT22;9400;50.924;5.328;2023-05-10T05:02:42;13.00;99.90
18541;DHT22;9400;50.924;5.328;2023-05-10T05:05:11;13.00;99.90
18541;DHT22;9400;50.924;5.328;2023-05-10T05:07:40;13.00;99.90
18541;DHT22;9400;50.924;5.328;2023-05-10T05:10:08;13.00;99.90
18541;DHT22;9400;50.924;5.328;2023-05-10T05:12:36;13.00;99.90
18541;DHT22;9400;50.924;5.328;2023-05-10T05:15:04;13.00;99.90
18541;DHT22;9400;50.924;5.328;2023-05-10T05:17:32;13.10;99.90
18541;DHT22;9400;50.924;5.328;2023-05-10T05:20:00;13.00;99.90
18541;DHT22;9400;50.924;5.328;2023-05-10T05:22:28;13.00;99.90
18541;DHT22;9400;50.924;5.328;2023-05-10T05:24:58;13.10;99.90
18541;DHT22;9400;50.924;5.328;2023-05-10T05:27:25;13.00;99.90
18541;DHT22;9400;50.924;5.328;2023-05-10T05:29:53;13.10;99.90
18541;DHT22;9400;50.924;5.328;2023-05-10T05:32:21;13.00;99.90
18541;DHT22;9400;50.924;5.328;2023-05-10T05:34:48;13.00;99.90
18541;DHT22;9400;50.924;5.328;2023-05-10T05:37:17;13.10;99.90
18541;DHT22;9400;50.924;5.328;2023-05-10T05:39:45;13.10;99.90
18541;DHT22;9400;50.924;5.328;2023-05-10T05:42:14;13.10;99.90
18541;DHT22;9400;50.924;5.328;2023-05-10T05:44:42;13.10;99.90
18541;DHT22;9400;50.924;5.328;2023-05-10T05:47:10;13.00;99.90
18541;DHT22;9400;50.924;5.328;2023-05-10T05:49:38;13.00;99.90
18541;DHT22;9400;50.924;5.328;2023-05-10T05:52:05;13.00;99.90
18541;DHT22;9400;50.924;5.328;2023-05-10T05:54:32;13.10;99.90
18541;DHT22;9400;50.924;5.328;2023-05-10T05:57:00;13.10;99.90
18541;DHT22;9400;50.924;5.328;2023-05-10T05:59:29;13.10;99.90
18541;DHT22;9400;50.924;5.328;2023-05-10T06:01:56;13.10;99.90
18541;DHT22;9400;50.924;5.328;2023-05-10T06:04:24;13.20;99.90
18541;DHT22;9400;50.924;5.328;2023-05-10T06:06:51;13.10;99.90
18541;DHT22;9400;50.924;5.328;2023-05-10T06:09:19;13.10;99.90
18541;DHT22;9400;50.924;5.328;2023-05-10T06:11:46;13.20;99.90
18541;DHT22;9400;50.924;5.328;2023-05-10T06:14:14;13.30;99.90
18541;DHT22;9400;50.924;5.328;2023-05-10T06:16:43;13.20;99.90
18541;DHT22;9400;50.924;5.328;2023-05-10T06:19:10;13.20;99.90
18541;DHT22;9400;50.924;5.328;2023-05-10T06:21:37;13.20;99.90
18541;DHT22;9400;50.924;5.328;2023-05-10T06:24:05;13.20;99.90
18541;DHT22;9400;50.924;5.328;2023-05-10T06:26:33;13.30;99.90
18541;DHT22;9400;50.924;5.328;2023-05-10T06:29:00;13.30;99.90
18541;DHT22;9400;50.924;5.328;2023-05-10T06:31:28;13.40;99.90
18541;DHT22;9400;50.924;5.328;2023-05-10T06:33:57;13.30;99.90
18541;DHT22;9400;50.924;5.328;2023-05-10T06:36:24;13.40;99.90
18541;DHT22;9400;50.924;5.328;2023-05-10T06:38:53;13.30;99.90
18541;DHT22;9400;50.924;5.328;2023-05-10T06:41:20;13.40;99.90
18541;DHT22;9400;50.924;5.328;2023-05-10T06:43:51;13.40;99.90
18541;DHT22;9400;50.924;5.328;2023-05-10T06:46:18;13.50;99.90
18541;DHT22;9400;50.924;5.328;2023-05-10T06:48:46;13.40;99.90
18541;DHT22;9400;50.924;5.328;2023-05-10T06:51:15;13.40;99.90
18541;DHT22;9400;50.924;5.328;2023-05-10T06:53:43;13.40;99.90
18541;DHT22;9400;50.924;5.328;2023-05-10T06:56:10;13.40;99.90
18541;DHT22;9400;50.924;5.328;2023-05-10T06:58:38;13.40;99.90
18541;DHT22;9400;50.924;5.328;2023-05-10T07:01:06;13.50;99.90
18541;DHT22;9400;50.924;5.328;2023-05-10T07:03:34;13.50;99.90
18541;DHT22;9400;50.924;5.328;2023-05-10T07:06:01;13.50;99.90
18541;DHT22;9400;50.924;5.328;2023-05-10T07:08:31;13.40;99.90
18541;DHT22;9400;50.924;5.328;2023-05-10T07:11:02;13.50;99.90
18541;DHT22;9400;50.924;5.328;2023-05-10T07:13:30;13.50;99.90
18541;DHT22;9400;50.924;5.328;2023-05-10T07:15:58;13.40;99.90
18541;DHT22;9400;50.924;5.328;2023-05-10T07:18:26;13.50;99.90
18541;DHT22;9400;50.924;5.328;2023-05-10T07:20:54;13.50;99.90
18541;DHT22;9400;50.924;5.328;2023-05-10T07:23:21;13.50;99.90
18541;DHT22;9400;50.924;5.328;2023-05-10T07:25:50;13.50;99.90
18541;DHT22;9400;50.924;5.328;2023-05-10T07:28:18;13.50;99.90
18541;DHT22;9400;50.924;5.328;2023-05-10T07:30:46;13.50;99.90
18541;DHT22;9400;50.924;5.328;2023-05-10T07:33:14;13.60;99.90
18541;DHT22;9400;50.924;5.328;2023-05-10T07:35:42;13.60;99.90
18541;DHT22;9400;50.924;5.328;2023-05-10T07:38:10;13.70;99.90
18541;DHT22;9400;50.924;5.328;2023-05-10T07:40:39;13.80;99.90
18541;DHT22;9400;50.924;5.328;2023-05-10T07:43:08;13.80;99.90
18541;DHT22;9400;50.924;5.328;2023-05-10T07:45:35;13.80;99.90
18541;DHT22;9400;50.924;5.328;2023-05-10T07:48:03;13.80;99.90
18541;DHT22;9400;50.924;5.328;2023-05-10T07:50:30;13.80;99.90
18541;DHT22;9400;50.924;5.328;2023-05-10T07:52:58;13.80;99.90
18541;DHT22;9400;50.924;5.328;2023-05-10T07:55:25;14.00;99.90
18541;DHT22;9400;50.924;5.328;2023-05-10T07:57:52;14.20;99.90
18541;DHT22;9400;50.924;5.328;2023-05-10T08:00:22;14.30;99.90
18541;DHT22;9400;50.924;5.328;2023-05-10T08:02:49;14.40;99.90
18541;DHT22;9400;50.924;5.328;2023-05-10T08:05:17;14.30;99.90
18541;DHT22;9400;50.924;5.328;2023-05-10T08:07:44;14.40;99.90
18541;DHT22;9400;50.924;5.328;2023-05-10T08:10:11;14.20;99.90
18541;DHT22;9400;50.924;5.328;2023-05-10T08:12:39;13.70;99.90
18541;DHT22;9400;50.924;5.328;2023-05-10T08:15:07;13.50;99.90
18541;DHT22;9400;50.924;5.328;2023-05-10T08:17:36;13.40;99.90
18541;DHT22;9400;50.924;5.328;2023-05-10T08:20:05;13.30;99.90
18541;DHT22;9400;50.924;5.328;2023-05-10T08:22:33;13.40;99.90
18541;DHT22;9400;50.924;5.328;2023-05-10T08:25:00;13.40;99.90
18541;DHT22;9400;50.924;5.328;2023-05-10T08:27:28;13.40;99.90
18541;DHT22;9400;50.924;5.328;2023-05-10T08:29:55;13.30;99.90
18541;DHT22;9400;50.924;5.328;2023-05-10T08:32:23;13.10;99.90
18541;DHT22;9400;50.924;5.328;2023-05-10T08:34:52;13.00;99.90
18541;DHT22;9400;50.924;5.328;2023-05-10T08:37:19;13.00;99.90
18541;DHT22;9400;50.924;5.328;2023-05-10T08:39:47;13.00;99.90
18541;DHT22;9400;50.924;5.328;2023-05-10T08:42:19;13.10;99.90
18541;DHT22;9400;50.924;5.328;2023-05-10T08:44:48;13.10;99.90
18541;DHT22;9400;50.924;5.328;2023-05-10T08:47:16;13.10;99.90
18541;DHT22;9400;50.924;5.328;2023-05-10T08:49:47;13.10;99.90
18541;DHT22;9400;50.924;5.328;2023-05-10T08:52:18;12.90;99.90
18541;DHT22;9400;50.924;5.328;2023-05-10T08:54:47;13.00;99.90
18541;DHT22;9400;50.924;5.328;2023-05-10T08:57:16;12.90;99.90
18541;DHT22;9400;50.924;5.328;2023-05-10T08:59:44;13.00;99.90
18541;DHT22;9400;50.924;5.328;2023-05-10T09:02:12;13.10;99.90
18541;DHT22;9400;50.924;5.328;2023-05-10T09:04:40;13.10;99.90
18541;DHT22;9400;50.924;5.328;2023-05-10T09:07:07;13.10;99.90
18541;DHT22;9400;50.924;5.328;2023-05-10T09:09:37;13.10;99.90
18541;DHT22;9400;50.924;5.328;2023-05-10T09:12:05;13.20;99.90
18541;DHT22;9400;50.924;5.328;2023-05-10T09:14:34;13.20;99.90
18541;DHT22;9400;50.924;5.328;2023-05-10T09:17:03;13.30;99.90
18541;DHT22;9400;50.924;5.328;2023-05-10T09:19:31;13.30;99.90
18541;DHT22;9400;50.924;5.328;2023-05-10T09:21:58;13.50;99.90
18541;DHT22;9400;50.924;5.328;2023-05-10T09:24:29;13.60;99.90
18541;DHT22;9400;50.924;5.328;2023-05-10T09:26:58;13.80;99.90
18541;DHT22;9400;50.924;5.328;2023-05-10T09:29:26;13.90;99.90
18541;DHT22;9400;50.924;5.328;2023-05-10T09:32:05;13.80;99.90
18541;DHT22;9400;50.924;5.328;2023-05-10T09:34:33;14.00;99.90
18541;DHT22;9400;50.924;5.328;2023-05-10T09:37:02;14.00;99.90
18541;DHT22;9400;50.924;5.328;2023-05-10T09:39:34;14.00;99.90
18541;DHT22;9400;50.924;5.328;2023-05-10T09:42:04;14.10;99.90
18541;DHT22;9400;50.924;5.328;2023-05-10T09:44:33;14.00;99.90
18541;DHT22;9400;50.924;5.328;2023-05-10T09:47:01;14.10;99.90
18541;DHT22;9400;50.924;5.328;2023-05-10T09:49:29;14.20;99.90
18541;DHT22;9400;50.924;5.328;2023-05-10T09:52:01;14.40;99.90
18541;DHT22;9400;50.924;5.328;2023-05-10T09:54:29;14.50;99.90
18541;DHT22;9400;50.924;5.328;2023-05-10T09:56:57;14.60;99.90
18541;DHT22;9400;50.924;5.328;2023-05-10T09:59:27;14.50;99.90
18541;DHT22;9400;50.924;5.328;2023-05-10T10:01:56;14.40;99.90
18541;DHT22;9400;50.924;5.328;2023-05-10T10:04:24;14.60;99.90
18541;DHT22;9400;50.924;5.328;2023-05-10T10:06:59;14.80;99.90
18541;DHT22;9400;50.924;5.328;2023-05-10T10:09:27;14.60;99.90
18541;DHT22;9400;50.924;5.328;2023-05-10T10:11:55;14.60;99.90
18541;DHT22;9400;50.924;5.328;2023-05-10T10:14:28;14.60;99.90
18541;DHT22;9400;50.924;5.328;2023-05-10T10:16:55;14.60;99.90
18541;DHT22;9400;50.924;5.328;2023-05-10T10:19:23;14.40;99.90
18541;DHT22;9400;50.924;5.328;2023-05-10T10:21:51;14.60;99.90
18541;DHT22;9400;50.924;5.328;2023-05-10T10:24:19;14.50;99.90
18541;DHT22;9400;50.924;5.328;2023-05-10T10:26:47;14.40;99.90
18541;DHT22;9400;50.924;5.328;2023-05-10T10:29:23;14.50;99.90
18541;DHT22;9400;50.924;5.328;2023-05-10T10:31:59;14.50;99.90
18541;DHT22;9400;50.924;5.328;2023-05-10T10:34:31;14.70;99.90
18541;DHT22;9400;50.924;5.328;2023-05-10T10:37:04;14.70;99.90
18541;DHT22;9400;50.924;5.328;2023-05-10T10:39:32;14.60;99.90
18541;DHT22;9400;50.924;5.328;2023-05-10T10:42:03;14.70;99.90
18541;DHT22;9400;50.924;5.328;2023-05-10T10:44:36;14.80;99.90
18541;DHT22;9400;50.924;5.328;2023-05-10T10:47:10;14.70;99.90
18541;DHT22;9400;50.924;5.328;2023-05-10T10:49:51;14.70;99.90
18541;DHT22;9400;50.924;5.328;2023-05-10T10:52:23;14.50;99.90
18541;DHT22;9400;50.924;5.328;2023-05-10T10:54:59;14.60;99.90
18541;DHT22;9400;50.924;5.328;2023-05-10T10:57:31;14.90;99.90
18541;DHT22;9400;50.924;5.328;2023-05-10T11:00:18;15.20;99.90
18541;DHT22;9400;50.924;5.328;2023-05-10T11:02:47;15.30;99.90
18541;DHT22;9400;50.924;5.328;2023-05-10T11:05:36;15.60;99.90
18541;DHT22;9400;50.924;5.328;2023-05-10T11:08:10;15.50;99.90
18541;DHT22;9400;50.924;5.328;2023-05-10T11:10:38;15.30;99.90
18541;DHT22;9400;50.924;5.328;2023-05-10T11:13:07;15.30;99.90
18541;DHT22;9400;50.924;5.328;2023-05-10T11:15:36;15.20;99.90
18541;DHT22;9400;50.924;5.328;2023-05-10T11:18:19;15.20;99.90
18541;DHT22;9400;50.924;5.328;2023-05-10T11:20:50;15.20;99.90
18541;DHT22;9400;50.924;5.328;2023-05-10T11:23:21;15.20;99.90
18541;DHT22;9400;50.924;5.328;2023-05-10T11:25:49;15.10;99.90
18541;DHT22;9400;50.924;5.328;2023-05-10T11:28:17;15.20;99.90
18541;DHT22;9400;50.924;5.328;2023-05-10T11:30:46;15.20;99.90
18541;DHT22;9400;50.924;5.328;2023-05-10T11:33:19;15.40;99.90
18541;DHT22;9400;50.924;5.328;2023-05-10T11:35:47;15.50;99.90
18541;DHT22;9400;50.924;5.328;2023-05-10T11:38:14;15.60;99.90
18541;DHT22;9400;50.924;5.328;2023-05-10T11:40:42;15.60;99.90
18541;DHT22;9400;50.924;5.328;2023-05-10T11:43:10;15.60;99.90
18541;DHT22;9400;50.924;5.328;2023-05-10T11:45:41;15.60;99.90
18541;DHT22;9400;50.924;5.328;2023-05-10T11:48:09;15.70;99.90
18541;DHT22;9400;50.924;5.328;2023-05-10T11:50:38;15.90;99.90
18541;DHT22;9400;50.924;5.328;2023-05-10T11:53:06;15.90;99.90
18541;DHT22;9400;50.924;5.328;2023-05-10T11:55:34;15.70;99.90
18541;DHT22;9400;50.924;5.328;2023-05-10T11:58:02;15.70;99.90
18541;DHT22;9400;50.924;5.328;2023-05-10T12:00:30;15.60;99.90
18541;DHT22;9400;50.924;5.328;2023-05-10T12:03:00;15.60;99.90
18541;DHT22;9400;50.924;5.328;2023-05-10T12:05:29;15.70;99.90
18541;DHT22;9400;50.924;5.328;2023-05-10T12:08:13;15.80;99.90
18541;DHT22;9400;50.924;5.328;2023-05-10T12:10:40;15.80;99.90
18541;DHT22;9400;50.924;5.328;2023-05-10T12:13:11;15.90;99.90
18541;DHT22;9400;50.924;5.328;2023-05-10T12:15:40;15.80;99.90
18541;DHT22;9400;50.924;5.328;2023-05-10T12:18:09;15.90;99.90
18541;DHT22;9400;50.924;5.328;2023-05-10T12:20:37;15.80;99.90
18541;DHT22;9400;50.924;5.328;2023-05-10T12:23:05;16.00;99.90
18541;DHT22;9400;50.924;5.328;2023-05-10T12:25:37;15.90;99.90
18541;DHT22;9400;50.924;5.328;2023-05-10T12:28:08;15.90;99.90
18541;DHT22;9400;50.924;5.328;2023-05-10T12:30:36;15.90;99.90
18541;DHT22;9400;50.924;5.328;2023-05-10T12:33:08;16.20;99.90
18541;DHT22;9400;50.924;5.328;2023-05-10T12:35:45;16.40;99.90
18541;DHT22;9400;50.924;5.328;2023-05-10T12:38:26;16.80;99.90
18541;DHT22;9400;50.924;5.328;2023-05-10T12:40:57;17.00;99.90
18541;DHT22;9400;50.924;5.328;2023-05-10T12:43:25;16.80;99.90
18541;DHT22;9400;50.924;5.328;2023-05-10T12:45:53;16.70;99.90
18541;DHT22;9400;50.924;5.328;2023-05-10T12:48:21;16.90;99.90
18541;DHT22;9400;50.924;5.328;2023-05-10T12:50:48;16.80;99.90
18541;DHT22;9400;50.924;5.328;2023-05-10T12:53:16;17.00;99.90
18541;DHT22;9400;50.924;5.328;2023-05-10T12:55:44;16.90;99.90
18541;DHT22;9400;50.924;5.328;2023-05-10T12:58:13;16.90;99.90
18541;DHT22;9400;50.924;5.328;2023-05-10T13:00:41;17.20;99.90
18541;DHT22;9400;50.924;5.328;2023-05-10T13:03:09;17.30;99.90
18541;DHT22;9400;50.924;5.328;2023-05-10T13:05:37;17.20;99.90
18541;DHT22;9400;50.924;5.328;2023-05-10T13:08:06;17.20;99.90
18541;DHT22;9400;50.924;5.328;2023-05-10T13:10:34;17.20;99.90
18541;DHT22;9400;50.924;5.328;2023-05-10T13:13:01;17.10;99.90
18541;DHT22;9400;50.924;5.328;2023-05-10T13:15:31;17.00;99.90
18541;DHT22;9400;50.924;5.328;2023-05-10T13:17:58;17.30;99.90
18541;DHT22;9400;50.924;5.328;2023-05-10T13:20:26;17.80;99.90
18541;DHT22;9400;50.924;5.328;2023-05-10T13:22:54;18.20;99.90
18541;DHT22;9400;50.924;5.328;2023-05-10T13:25:21;18.00;99.90
18541;DHT22;9400;50.924;5.328;2023-05-10T13:27:49;17.60;99.90
18541;DHT22;9400;50.924;5.328;2023-05-10T13:30:17;17.50;99.90
18541;DHT22;9400;50.924;5.328;2023-05-10T13:32:46;17.70;99.90
18541;DHT22;9400;50.924;5.328;2023-05-10T13:35:14;17.70;99.90
18541;DHT22;9400;50.924;5.328;2023-05-10T13:37:44;17.90;99.90
18541;DHT22;9400;50.924;5.328;2023-05-10T13:40:12;18.10;99.90
18541;DHT22;9400;50.924;5.328;2023-05-10T13:42:41;18.10;99.90
18541;DHT22;9400;50.924;5.328;2023-05-10T13:45:10;17.80;99.90
18541;DHT22;9400;50.924;5.328;2023-05-10T13:47:39;17.90;99.90
18541;DHT22;9400;50.924;5.328;2023-05-10T13:50:09;17.80;99.90
18541;DHT22;9400;50.924;5.328;2023-05-10T13:52:36;17.60;99.90
18541;DHT22;9400;50.924;5.328;2023-05-10T13:55:04;17.70;99.90
18541;DHT22;9400;50.924;5.328;2023-05-10T13:57:32;17.70;99.90
18541;DHT22;9400;50.924;5.328;2023-05-10T14:00:01;18.10;99.90
18541;DHT22;9400;50.924;5.328;2023-05-10T14:02:29;18.00;99.90
18541;DHT22;9400;50.924;5.328;2023-05-10T14:04:56;17.90;99.90
18541;DHT22;9400;50.924;5.328;2023-05-10T14:07:26;17.90;99.90
18541;DHT22;9400;50.924;5.328;2023-05-10T14:09:53;17.80;99.90
18541;DHT22;9400;50.924;5.328;2023-05-10T14:12:22;17.90;99.90
18541;DHT22;9400;50.924;5.328;2023-05-10T14:14:49;17.80;99.90
18541;DHT22;9400;50.924;5.328;2023-05-10T14:17:18;17.60;99.90
18541;DHT22;9400;50.924;5.328;2023-05-10T14:19:45;17.60;99.90
18541;DHT22;9400;50.924;5.328;2023-05-10T14:22:13;18.10;99.90
18541;DHT22;9400;50.924;5.328;2023-05-10T14:24:42;18.20;99.90
18541;DHT22;9400;50.924;5.328;2023-05-10T14:27:12;18.30;99.90
18541;DHT22;9400;50.924;5.328;2023-05-10T14:29:41;18.20;99.90
18541;DHT22;9400;50.924;5.328;2023-05-10T14:32:09;18.30;99.90
18541;DHT22;9400;50.924;5.328;2023-05-10T14:34:36;18.50;99.90
18541;DHT22;9400;50.924;5.328;2023-05-10T14:37:04;18.50;99.90
18541;DHT22;9400;50.924;5.328;2023-05-10T14:39:31;19.30;99.90
18541;DHT22;9400;50.924;5.328;2023-05-10T14:42:01;20.50;99.90
18541;DHT22;9400;50.924;5.328;2023-05-10T14:44:29;21.20;99.90
18541;DHT22;9400;50.924;5.328;2023-05-10T14:46:56;22.10;99.90
18541;DHT22;9400;50.924;5.328;2023-05-10T14:49:24;23.20;99.90
18541;DHT22;9400;50.924;5.328;2023-05-10T14:51:52;23.10;99.90
18541;DHT22;9400;50.924;5.328;2023-05-10T14:54:19;22.70;99.90
18541;DHT22;9400;50.924;5.328;2023-05-10T14:56:47;22.70;99.90
18541;DHT22;9400;50.924;5.328;2023-05-10T14:59:17;23.20;99.90
18541;DHT22;9400;50.924;5.328;2023-05-10T15:01:45;22.40;99.90
18541;DHT22;9400;50.924;5.328;2023-05-10T15:04:12;21.70;99.90
18541;DHT22;9400;50.924;5.328;2023-05-10T15:06:41;20.50;99.90
18541;DHT22;9400;50.924;5.328;2023-05-10T15:09:09;19.90;99.90
18541;DHT22;9400;50.924;5.328;2023-05-10T15:11:36;19.60;99.90
18541;DHT22;9400;50.924;5.328;2023-05-10T15:14:04;19.30;99.90
18541;DHT22;9400;50.924;5.328;2023-05-10T15:16:34;18.70;99.90
18541;DHT22;9400;50.924;5.328;2023-05-10T15:19:02;18.90;99.90
18541;DHT22;9400;50.924;5.328;2023-05-10T15:21:29;18.80;99.90
18541;DHT22;9400;50.924;5.328;2023-05-10T15:24:02;18.80;99.90
18541;DHT22;9400;50.924;5.328;2023-05-10T15:26:30;19.10;99.90
18541;DHT22;9400;50.924;5.328;2023-05-10T15:28:58;19.60;99.90
18541;DHT22;9400;50.924;5.328;2023-05-10T15:31:25;19.80;99.90
18541;DHT22;9400;50.924;5.328;2023-05-10T15:33:57;20.50;99.90
18541;DHT22;9400;50.924;5.328;2023-05-10T15:36:25;20.90;99.90
18541;DHT22;9400;50.924;5.328;2023-05-10T15:38:53;21.20;99.90
18541;DHT22;9400;50.924;5.328;2023-05-10T15:41:21;21.30;99.90
18541;DHT22;9400;50.924;5.328;2023-05-10T15:43:49;20.80;99.90
18541;DHT22;9400;50.924;5.328;2023-05-10T15:46:16;21.00;99.90
18541;DHT22;9400;50.924;5.328;2023-05-10T15:48:44;21.30;99.90
18541;DHT22;9400;50.924;5.328;2023-05-10T15:51:13;20.80;99.90
18541;DHT22;9400;50.924;5.328;2023-05-10T15:53:41;20.70;99.90
18541;DHT22;9400;50.924;5.328;2023-05-10T15:56:09;20.90;99.90
18541;DHT22;9400;50.924;5.328;2023-05-10T15:58:37;21.10;99.90
18541;DHT22;9400;50.924;5.328;2023-05-10T16:01:05;20.80;99.90
18541;DHT22;9400;50.924;5.328;2023-05-10T16:03:33;20.70;99.90